LAS weather

McCarran International Airport
Las Vegas, Nevada, United States

Public forecast

Using degrees Fahrenheit for public forecast. Weather courtesy of forecast.io.

METAR (pilot weather report)

Retrieved 2018/12/19 14:56 UTC (38 minutes ago):

KLAS 191456Z 26004KT 10SM FEW250 08/M01 A3026 RMK AO2 SLP247 T00781011 53014 $

TAF (pilot weather forecast)

Retrieved 2018/12/19 12:22 UTC (3 hours ago):

TAF KLAS 191120Z 1912/2018 22005KT P6SM FEW250 FM191500 VRB05KT P6SM SCT250 FM200200 22005KT P6SM SCT250 FM201500 VRB05KT P6SM SCT250